Shinzan Maru — V7WN7 — position and weather

sailwx.info

Track history (hours):
 
Tides and Currents Weather Stations Pressure Air Temp Water Temp Dewpoint Dewpoint Depression Visibility Wind Speed Wind Dir Waves Ship Positions

Shinzan Maru

Last reported at 2017-Sep-07 18:43 UTC. Time now 2017-Sep-22 04:23 UTC.
Position N 29°25' W 124°56'.
Warning: this ship's position is 14 days out of date.

Length 320 m; draft 10 m.

Type: Cargo ship. MMSI: 538004348.

Date/timePositionNaut miles runAvg speedWind from/ knotsBaromVisibWave heightAir tempDewpointWater temp
2017-Sep-07 18:43N 29°25' W 124°56'313.4
2017-Sep-07 18:28N 29°24' W 124°53'713.4
2017-Sep-07 17:58N 29°21' W 124°46'713.4
2017-Sep-07 17:28N 29°17' W 124°39'613.4
2017-Sep-07 16:59N 29°14' W 124°33'813.3
2017-Sep-07 16:24N 29°11' W 124°25'613.4
2017-Sep-07 15:56N 29°08' W 124°18'613.4
2017-Sep-07 15:30N 29°05' W 124°12'1113.5
2017-Sep-07 14:41N 29°00' W 124°01'213.5
2017-Sep-07 14:30N 28°59' W 123°59'713.4
2017-Sep-07 13:59N 28°56' W 123°52'713.3
2017-Sep-07 13:28N 28°53' W 123°45'1813.7
2017-Sep-07 12:09N 28°44' W 123°26'214.0
2017-Sep-07 12:00N 28°43' W 123°24'713.7
2017-Sep-07 11:31N 28°40' W 123°18'713.8
2017-Sep-07 11:00N 28°37' W 123°11'713.8
2017-Sep-07 10:30N 28°34' W 123°04'913.7
2017-Sep-07 09:51N 28°29' W 122°55'713.6
2017-Sep-07 09:20N 28°26' W 122°48'5413.8
2017-Sep-07 05:27N 28°01' W 121°54'  
2017-Aug-28 19:46N 09°10' W 079°49'3 9.3
2017-Aug-28 19:28N 09°11' W 079°52'4 9.2
2017-Aug-28 19:01N 09°13' W 079°55'  
Track history (hours):
 
Tides and Currents Weather Stations Pressure Air Temp Water Temp Dewpoint Dewpoint Depression Visibility Wind Speed Wind Dir Waves Ship Positions

Shinzan Maru

Last reported at 2017-Sep-07 18:43 UTC. Time now 2017-Sep-22 04:23 UTC.
Position N 29°25' W 124°56'.
Warning: this ship's position is 14 days out of date.

Length 320 m; draft 10 m.

Type: Cargo ship. MMSI: 538004348.

Date/timePositionNaut miles runAvg speedWind from/ knotsBaromVisibWave heightAir tempDewpointWater temp
2017-Sep-07 18:43N 29°25' W 124°56'313.4
2017-Sep-07 18:28N 29°24' W 124°53'713.4
2017-Sep-07 17:58N 29°21' W 124°46'713.4
2017-Sep-07 17:28N 29°17' W 124°39'613.4
2017-Sep-07 16:59N 29°14' W 124°33'813.3
2017-Sep-07 16:24N 29°11' W 124°25'613.4
2017-Sep-07 15:56N 29°08' W 124°18'613.4
2017-Sep-07 15:30N 29°05' W 124°12'1113.5
2017-Sep-07 14:41N 29°00' W 124°01'213.5
2017-Sep-07 14:30N 28°59' W 123°59'713.4
2017-Sep-07 13:59N 28°56' W 123°52'713.3
2017-Sep-07 13:28N 28°53' W 123°45'1813.7
2017-Sep-07 12:09N 28°44' W 123°26'214.0
2017-Sep-07 12:00N 28°43' W 123°24'713.7
2017-Sep-07 11:31N 28°40' W 123°18'713.8
2017-Sep-07 11:00N 28°37' W 123°11'713.8
2017-Sep-07 10:30N 28°34' W 123°04'913.7
2017-Sep-07 09:51N 28°29' W 122°55'713.6
2017-Sep-07 09:20N 28°26' W 122°48'5413.8
2017-Sep-07 05:27N 28°01' W 121°54'  
2017-Aug-28 19:46N 09°10' W 079°49'3 9.3
2017-Aug-28 19:28N 09°11' W 079°52'4 9.2
2017-Aug-28 19:01N 09°13' W 079°55'  

Dump ship's entire track history